sensor_id;sensor_type;location;lat;lon;timestamp;P1;durP1;ratioP1;P2;durP2;ratioP2
9722;SDS011;4900;49.306;8.500;2022-07-19T00:01:55;5.45;;;3.05;;
9722;SDS011;4900;49.306;8.500;2022-07-19T00:04:58;3.10;;;2.53;;
9722;SDS011;4900;49.306;8.500;2022-07-19T00:08:01;4.75;;;3.00;;
9722;SDS011;4900;49.306;8.500;2022-07-19T00:11:04;6.18;;;2.75;;
9722;SDS011;4900;49.306;8.500;2022-07-19T00:14:07;4.82;;;2.90;;
9722;SDS011;4900;49.306;8.500;2022-07-19T00:17:11;7.22;;;2.88;;
9722;SDS011;4900;49.306;8.500;2022-07-19T00:20:15;7.38;;;3.00;;
9722;SDS011;4900;49.306;8.500;2022-07-19T00:23:20;3.90;;;2.70;;
9722;SDS011;4900;49.306;8.500;2022-07-19T00:26:24;3.55;;;2.70;;
9722;SDS011;4900;49.306;8.500;2022-07-19T00:29:26;3.75;;;3.03;;
9722;SDS011;4900;49.306;8.500;2022-07-19T00:32:30;5.25;;;2.60;;
9722;SDS011;4900;49.306;8.500;2022-07-19T00:35:33;4.75;;;2.70;;
9722;SDS011;4900;49.306;8.500;2022-07-19T00:38:39;4.40;;;2.85;;
9722;SDS011;4900;49.306;8.500;2022-07-19T00:41:43;3.03;;;2.72;;
9722;SDS011;4900;49.306;8.500;2022-07-19T00:44:47;6.03;;;3.10;;
9722;SDS011;4900;49.306;8.500;2022-07-19T00:47:50;5.28;;;3.63;;
9722;SDS011;4900;49.306;8.500;2022-07-19T00:50:54;4.05;;;2.88;;
9722;SDS011;4900;49.306;8.500;2022-07-19T00:53:57;5.78;;;3.15;;
9722;SDS011;4900;49.306;8.500;2022-07-19T00:57:03;5.03;;;2.92;;
9722;SDS011;4900;49.306;8.500;2022-07-19T01:00:08;6.22;;;3.75;;
9722;SDS011;4900;49.306;8.500;2022-07-19T01:03:12;14.95;;;4.45;;
9722;SDS011;4900;49.306;8.500;2022-07-19T01:06:16;6.63;;;3.55;;
9722;SDS011;4900;49.306;8.500;2022-07-19T01:09:19;6.55;;;3.50;;
9722;SDS011;4900;49.306;8.500;2022-07-19T01:12:22;5.05;;;2.83;;
9722;SDS011;4900;49.306;8.500;2022-07-19T01:15:25;4.53;;;3.20;;
9722;SDS011;4900;49.306;8.500;2022-07-19T01:18:30;5.28;;;2.97;;
9722;SDS011;4900;49.306;8.500;2022-07-19T01:21:34;5.72;;;3.20;;
9722;SDS011;4900;49.306;8.500;2022-07-19T01:24:37;4.93;;;3.15;;
9722;SDS011;4900;49.306;8.500;2022-07-19T01:27:41;4.22;;;3.00;;
9722;SDS011;4900;49.306;8.500;2022-07-19T01:30:51;4.22;;;3.55;;
9722;SDS011;4900;49.306;8.500;2022-07-19T01:33:54;5.30;;;3.00;;
9722;SDS011;4900;49.306;8.500;2022-07-19T01:36:58;4.20;;;3.10;;
9722;SDS011;4900;49.306;8.500;2022-07-19T01:40:02;5.50;;;3.30;;
9722;SDS011;4900;49.306;8.500;2022-07-19T01:43:10;5.43;;;3.58;;
9722;SDS011;4900;49.306;8.500;2022-07-19T01:46:13;5.15;;;3.22;;
9722;SDS011;4900;49.306;8.500;2022-07-19T01:49:17;5.57;;;3.55;;
9722;SDS011;4900;49.306;8.500;2022-07-19T01:52:20;5.38;;;3.30;;
9722;SDS011;4900;49.306;8.500;2022-07-19T01:55:23;3.97;;;3.35;;
9722;SDS011;4900;49.306;8.500;2022-07-19T01:58:27;5.63;;;3.35;;
9722;SDS011;4900;49.306;8.500;2022-07-19T02:01:30;4.25;;;3.53;;
9722;SDS011;4900;49.306;8.500;2022-07-19T02:04:34;5.47;;;3.60;;
9722;SDS011;4900;49.306;8.500;2022-07-19T02:07:38;4.43;;;3.35;;
9722;SDS011;4900;49.306;8.500;2022-07-19T02:10:41;4.55;;;3.50;;
9722;SDS011;4900;49.306;8.500;2022-07-19T02:13:45;7.22;;;3.42;;
9722;SDS011;4900;49.306;8.500;2022-07-19T02:16:48;6.28;;;3.45;;
9722;SDS011;4900;49.306;8.500;2022-07-19T02:19:52;7.20;;;3.80;;
9722;SDS011;4900;49.306;8.500;2022-07-19T02:22:55;6.25;;;3.50;;
9722;SDS011;4900;49.306;8.500;2022-07-19T02:25:59;4.03;;;3.00;;
9722;SDS011;4900;49.306;8.500;2022-07-19T02:29:02;4.22;;;2.83;;
9722;SDS011;4900;49.306;8.500;2022-07-19T02:32:06;5.55;;;3.88;;
9722;SDS011;4900;49.306;8.500;2022-07-19T02:35:10;4.50;;;3.30;;
9722;SDS011;4900;49.306;8.500;2022-07-19T02:38:14;5.65;;;3.53;;
9722;SDS011;4900;49.306;8.500;2022-07-19T02:41:17;5.03;;;3.50;;
9722;SDS011;4900;49.306;8.500;2022-07-19T02:44:20;8.18;;;4.18;;
9722;SDS011;4900;49.306;8.500;2022-07-19T02:47:24;8.45;;;3.97;;
9722;SDS011;4900;49.306;8.500;2022-07-19T02:50:27;6.30;;;3.65;;
9722;SDS011;4900;49.306;8.500;2022-07-19T02:53:31;6.18;;;3.85;;
9722;SDS011;4900;49.306;8.500;2022-07-19T02:56:34;4.43;;;3.40;;
9722;SDS011;4900;49.306;8.500;2022-07-19T02:59:38;5.72;;;3.20;;
9722;SDS011;4900;49.306;8.500;2022-07-19T03:02:42;6.60;;;3.85;;
9722;SDS011;4900;49.306;8.500;2022-07-19T03:05:45;4.03;;;3.60;;
9722;SDS011;4900;49.306;8.500;2022-07-19T03:08:49;7.03;;;3.78;;
9722;SDS011;4900;49.306;8.500;2022-07-19T03:11:52;4.60;;;3.55;;
9722;SDS011;4900;49.306;8.500;2022-07-19T03:14:56;5.15;;;3.53;;
9722;SDS011;4900;49.306;8.500;2022-07-19T03:17:59;6.45;;;4.00;;
9722;SDS011;4900;49.306;8.500;2022-07-19T03:21:03;5.25;;;4.10;;
9722;SDS011;4900;49.306;8.500;2022-07-19T03:24:06;6.57;;;4.18;;
9722;SDS011;4900;49.306;8.500;2022-07-19T03:27:10;6.30;;;4.25;;
9722;SDS011;4900;49.306;8.500;2022-07-19T03:30:13;6.20;;;3.90;;
9722;SDS011;4900;49.306;8.500;2022-07-19T03:33:16;4.88;;;3.80;;
9722;SDS011;4900;49.306;8.500;2022-07-19T03:36:20;4.95;;;3.65;;
9722;SDS011;4900;49.306;8.500;2022-07-19T03:39:23;5.78;;;3.53;;
9722;SDS011;4900;49.306;8.500;2022-07-19T03:42:26;6.82;;;3.40;;
9722;SDS011;4900;49.306;8.500;2022-07-19T03:45:29;5.40;;;3.53;;
9722;SDS011;4900;49.306;8.500;2022-07-19T03:48:33;5.50;;;3.83;;
9722;SDS011;4900;49.306;8.500;2022-07-19T03:51:36;4.90;;;3.58;;
9722;SDS011;4900;49.306;8.500;2022-07-19T03:54:40;7.65;;;3.97;;
9722;SDS011;4900;49.306;8.500;2022-07-19T03:57:43;4.43;;;3.72;;
9722;SDS011;4900;49.306;8.500;2022-07-19T04:00:46;5.55;;;3.97;;
9722;SDS011;4900;49.306;8.500;2022-07-19T04:03:50;4.75;;;3.90;;
9722;SDS011;4900;49.306;8.500;2022-07-19T04:06:53;7.22;;;3.85;;
9722;SDS011;4900;49.306;8.500;2022-07-19T04:09:56;8.18;;;3.85;;
9722;SDS011;4900;49.306;8.500;2022-07-19T04:13:00;6.90;;;3.65;;
9722;SDS011;4900;49.306;8.500;2022-07-19T04:16:03;5.47;;;3.80;;
9722;SDS011;4900;49.306;8.500;2022-07-19T04:19:34;6.13;;;4.00;;
9722;SDS011;4900;49.306;8.500;2022-07-19T04:22:38;6.70;;;4.53;;
9722;SDS011;4900;49.306;8.500;2022-07-19T04:25:41;14.15;;;5.68;;
9722;SDS011;4900;49.306;8.500;2022-07-19T04:28:45;7.05;;;4.28;;
9722;SDS011;4900;49.306;8.500;2022-07-19T04:31:48;7.78;;;4.00;;
9722;SDS011;4900;49.306;8.500;2022-07-19T04:34:52;8.82;;;3.88;;
9722;SDS011;4900;49.306;8.500;2022-07-19T04:37:55;11.45;;;4.95;;
9722;SDS011;4900;49.306;8.500;2022-07-19T04:40:58;6.47;;;4.30;;
9722;SDS011;4900;49.306;8.500;2022-07-19T04:44:02;10.05;;;5.10;;
9722;SDS011;4900;49.306;8.500;2022-07-19T04:47:05;8.20;;;4.93;;
9722;SDS011;4900;49.306;8.500;2022-07-19T04:50:09;8.95;;;4.95;;
9722;SDS011;4900;49.306;8.500;2022-07-19T04:53:12;9.75;;;4.60;;
9722;SDS011;4900;49.306;8.500;2022-07-19T04:56:16;5.90;;;3.75;;
9722;SDS011;4900;49.306;8.500;2022-07-19T04:59:19;5.97;;;3.67;;
9722;SDS011;4900;49.306;8.500;2022-07-19T05:02:23;7.03;;;3.70;;
9722;SDS011;4900;49.306;8.500;2022-07-19T05:05:26;5.10;;;3.55;;
9722;SDS011;4900;49.306;8.500;2022-07-19T05:08:30;4.82;;;3.25;;
9722;SDS011;4900;49.306;8.500;2022-07-19T05:11:33;3.45;;;3.15;;
9722;SDS011;4900;49.306;8.500;2022-07-19T05:14:37;6.15;;;3.28;;
9722;SDS011;4900;49.306;8.500;2022-07-19T05:17:40;4.57;;;3.42;;
9722;SDS011;4900;49.306;8.500;2022-07-19T05:20:44;6.47;;;3.50;;
9722;SDS011;4900;49.306;8.500;2022-07-19T05:23:48;6.85;;;3.38;;
9722;SDS011;4900;49.306;8.500;2022-07-19T05:26:51;5.30;;;3.40;;
9722;SDS011;4900;49.306;8.500;2022-07-19T05:29:54;6.50;;;3.10;;
9722;SDS011;4900;49.306;8.500;2022-07-19T05:32:58;4.88;;;3.00;;
9722;SDS011;4900;49.306;8.500;2022-07-19T05:36:01;10.10;;;3.78;;
9722;SDS011;4900;49.306;8.500;2022-07-19T05:39:08;5.55;;;3.15;;
9722;SDS011;4900;49.306;8.500;2022-07-19T05:42:11;4.97;;;3.40;;
9722;SDS011;4900;49.306;8.500;2022-07-19T05:45:15;5.22;;;3.00;;
9722;SDS011;4900;49.306;8.500;2022-07-19T05:48:18;6.03;;;3.42;;
9722;SDS011;4900;49.306;8.500;2022-07-19T05:51:21;5.50;;;3.70;;
9722;SDS011;4900;49.306;8.500;2022-07-19T05:54:25;5.07;;;3.15;;
9722;SDS011;4900;49.306;8.500;2022-07-19T05:57:28;5.80;;;3.65;;
9722;SDS011;4900;49.306;8.500;2022-07-19T06:00:32;6.47;;;4.25;;
9722;SDS011;4900;49.306;8.500;2022-07-19T06:03:35;7.65;;;4.60;;
9722;SDS011;4900;49.306;8.500;2022-07-19T06:06:39;8.07;;;3.40;;
9722;SDS011;4900;49.306;8.500;2022-07-19T06:09:42;7.82;;;4.60;;
9722;SDS011;4900;49.306;8.500;2022-07-19T06:12:45;9.10;;;4.55;;
9722;SDS011;4900;49.306;8.500;2022-07-19T06:15:49;6.65;;;3.63;;
9722;SDS011;4900;49.306;8.500;2022-07-19T06:18:52;5.50;;;4.03;;
9722;SDS011;4900;49.306;8.500;2022-07-19T06:21:56;5.18;;;3.97;;
9722;SDS011;4900;49.306;8.500;2022-07-19T06:24:59;4.45;;;3.67;;
9722;SDS011;4900;49.306;8.500;2022-07-19T06:28:02;6.75;;;4.40;;
9722;SDS011;4900;49.306;8.500;2022-07-19T06:31:09;8.25;;;3.55;;
9722;SDS011;4900;49.306;8.500;2022-07-19T06:34:13;4.15;;;3.55;;
9722;SDS011;4900;49.306;8.500;2022-07-19T06:37:17;7.20;;;4.05;;
9722;SDS011;4900;49.306;8.500;2022-07-19T06:40:20;7.75;;;3.25;;
9722;SDS011;4900;49.306;8.500;2022-07-19T06:43:23;7.38;;;3.50;;
9722;SDS011;4900;49.306;8.500;2022-07-19T06:46:27;6.15;;;2.80;;
9722;SDS011;4900;49.306;8.500;2022-07-19T06:49:30;7.30;;;3.00;;
9722;SDS011;4900;49.306;8.500;2022-07-19T06:52:34;6.18;;;2.65;;
9722;SDS011;4900;49.306;8.500;2022-07-19T06:55:37;6.97;;;2.72;;
9722;SDS011;4900;49.306;8.500;2022-07-19T06:58:40;5.82;;;2.70;;
9722;SDS011;4900;49.306;8.500;2022-07-19T07:01:44;5.93;;;2.83;;
9722;SDS011;4900;49.306;8.500;2022-07-19T07:04:47;3.55;;;2.70;;
9722;SDS011;4900;49.306;8.500;2022-07-19T07:07:50;6.90;;;2.63;;
9722;SDS011;4900;49.306;8.500;2022-07-19T07:10:53;5.50;;;2.67;;
9722;SDS011;4900;49.306;8.500;2022-07-19T07:13:57;5.25;;;2.55;;
9722;SDS011;4900;49.306;8.500;2022-07-19T07:17:01;4.00;;;2.70;;
9722;SDS011;4900;49.306;8.500;2022-07-19T07:20:04;8.25;;;2.95;;
9722;SDS011;4900;49.306;8.500;2022-07-19T07:23:08;8.38;;;2.92;;
9722;SDS011;4900;49.306;8.500;2022-07-19T07:26:12;9.73;;;2.90;;
9722;SDS011;4900;49.306;8.500;2022-07-19T07:29:15;4.88;;;2.35;;
9722;SDS011;4900;49.306;8.500;2022-07-19T07:32:19;4.93;;;2.80;;
9722;SDS011;4900;49.306;8.500;2022-07-19T07:35:22;4.25;;;2.58;;
9722;SDS011;4900;49.306;8.500;2022-07-19T07:38:26;5.13;;;3.00;;
9722;SDS011;4900;49.306;8.500;2022-07-19T07:41:29;4.40;;;2.88;;
9722;SDS011;4900;49.306;8.500;2022-07-19T07:44:32;4.22;;;2.50;;
9722;SDS011;4900;49.306;8.500;2022-07-19T07:47:36;5.55;;;2.70;;
9722;SDS011;4900;49.306;8.500;2022-07-19T07:50:40;7.38;;;2.90;;
9722;SDS011;4900;49.306;8.500;2022-07-19T07:53:43;3.15;;;2.60;;
9722;SDS011;4900;49.306;8.500;2022-07-19T07:56:46;5.75;;;2.67;;
9722;SDS011;4900;49.306;8.500;2022-07-19T07:59:50;5.18;;;2.80;;
9722;SDS011;4900;49.306;8.500;2022-07-19T08:02:53;3.00;;;2.67;;
9722;SDS011;4900;49.306;8.500;2022-07-19T08:05:57;7.00;;;2.38;;
9722;SDS011;4900;49.306;8.500;2022-07-19T08:09:00;7.97;;;2.72;;
9722;SDS011;4900;49.306;8.500;2022-07-19T08:12:03;14.35;;;3.35;;
9722;SDS011;4900;49.306;8.500;2022-07-19T08:15:07;4.13;;;2.55;;
9722;SDS011;4900;49.306;8.500;2022-07-19T08:18:10;5.53;;;2.55;;
9722;SDS011;4900;49.306;8.500;2022-07-19T08:21:14;4.45;;;2.28;;
9722;SDS011;4900;49.306;8.500;2022-07-19T08:24:17;5.38;;;2.60;;
9722;SDS011;4900;49.306;8.500;2022-07-19T08:27:20;4.93;;;2.47;;
9722;SDS011;4900;49.306;8.500;2022-07-19T08:30:24;4.30;;;2.65;;
9722;SDS011;4900;49.306;8.500;2022-07-19T08:33:29;7.43;;;3.00;;
9722;SDS011;4900;49.306;8.500;2022-07-19T08:36:32;4.57;;;2.58;;
9722;SDS011;4900;49.306;8.500;2022-07-19T08:39:36;3.47;;;2.45;;
9722;SDS011;4900;49.306;8.500;2022-07-19T08:42:39;4.47;;;2.47;;
9722;SDS011;4900;49.306;8.500;2022-07-19T08:45:43;5.28;;;2.55;;
9722;SDS011;4900;49.306;8.500;2022-07-19T08:48:46;3.60;;;2.72;;
9722;SDS011;4900;49.306;8.500;2022-07-19T08:51:50;3.63;;;2.40;;
9722;SDS011;4900;49.306;8.500;2022-07-19T08:54:55;4.35;;;2.33;;
9722;SDS011;4900;49.306;8.500;2022-07-19T08:58:01;8.05;;;2.65;;
9722;SDS011;4900;49.306;8.500;2022-07-19T09:01:04;4.95;;;2.40;;
9722;SDS011;4900;49.306;8.500;2022-07-19T09:04:15;32.67;;;4.00;;
9722;SDS011;4900;49.306;8.500;2022-07-19T09:07:19;8.80;;;2.97;;
9722;SDS011;4900;49.306;8.500;2022-07-19T09:10:23;5.60;;;2.70;;
9722;SDS011;4900;49.306;8.500;2022-07-19T09:13:27;3.75;;;2.50;;
9722;SDS011;4900;49.306;8.500;2022-07-19T09:16:52;6.72;;;2.67;;
9722;SDS011;4900;49.306;8.500;2022-07-19T09:19:57;3.35;;;2.40;;
9722;SDS011;4900;49.306;8.500;2022-07-19T09:23:01;4.40;;;2.50;;
9722;SDS011;4900;49.306;8.500;2022-07-19T09:26:04;3.85;;;2.40;;
9722;SDS011;4900;49.306;8.500;2022-07-19T09:29:18;4.13;;;2.30;;
9722;SDS011;4900;49.306;8.500;2022-07-19T09:32:21;3.38;;;2.30;;
9722;SDS011;4900;49.306;8.500;2022-07-19T09:35:34;2.85;;;2.30;;
9722;SDS011;4900;49.306;8.500;2022-07-19T09:38:39;5.30;;;2.60;;
9722;SDS011;4900;49.306;8.500;2022-07-19T09:41:55;3.80;;;2.40;;
9722;SDS011;4900;49.306;8.500;2022-07-19T09:45:01;4.88;;;2.42;;
9722;SDS011;4900;49.306;8.500;2022-07-19T09:48:07;3.65;;;2.30;;
9722;SDS011;4900;49.306;8.500;2022-07-19T09:51:10;2.85;;;2.20;;
9722;SDS011;4900;49.306;8.500;2022-07-19T09:54:22;4.28;;;2.33;;
9722;SDS011;4900;49.306;8.500;2022-07-19T09:57:27;3.17;;;2.20;;
9722;SDS011;4900;49.306;8.500;2022-07-19T10:00:37;3.17;;;2.17;;
9722;SDS011;4900;49.306;8.500;2022-07-19T10:03:41;4.47;;;2.30;;
9722;SDS011;4900;49.306;8.500;2022-07-19T10:06:47;3.03;;;2.22;;
9722;SDS011;4900;49.306;8.500;2022-07-19T10:09:51;2.95;;;2.40;;
9722;SDS011;4900;49.306;8.500;2022-07-19T10:12:55;5.15;;;2.30;;
9722;SDS011;4900;49.306;8.500;2022-07-19T10:16:00;4.68;;;2.20;;
9722;SDS011;4900;49.306;8.500;2022-07-19T10:19:12;4.68;;;2.20;;
9722;SDS011;4900;49.306;8.500;2022-07-19T10:22:21;4.07;;;2.50;;
9722;SDS011;4900;49.306;8.500;2022-07-19T10:25:41;3.65;;;2.10;;
9722;SDS011;4900;49.306;8.500;2022-07-19T10:28:47;3.47;;;2.38;;
9722;SDS011;4900;49.306;8.500;2022-07-19T10:32:10;4.85;;;2.35;;
9722;SDS011;4900;49.306;8.500;2022-07-19T10:38:30;6.70;;;2.20;;
9722;SDS011;4900;49.306;8.500;2022-07-19T10:41:33;3.40;;;2.40;;
9722;SDS011;4900;49.306;8.500;2022-07-19T10:48:03;8.27;;;2.30;;
9722;SDS011;4900;49.306;8.500;2022-07-19T10:51:30;3.30;;;2.05;;
9722;SDS011;4900;49.306;8.500;2022-07-19T10:54:37;5.63;;;2.10;;
9722;SDS011;4900;49.306;8.500;2022-07-19T10:57:41;2.60;;;2.05;;
9722;SDS011;4900;49.306;8.500;2022-07-19T11:00:48;4.95;;;2.30;;
9722;SDS011;4900;49.306;8.500;2022-07-19T11:03:52;4.85;;;2.30;;
9722;SDS011;4900;49.306;8.500;2022-07-19T11:07:13;3.67;;;2.35;;
9722;SDS011;4900;49.306;8.500;2022-07-19T11:10:25;4.35;;;2.30;;
9722;SDS011;4900;49.306;8.500;2022-07-19T11:13:29;3.38;;;2.40;;
9722;SDS011;4900;49.306;8.500;2022-07-19T11:16:32;3.05;;;2.20;;
9722;SDS011;4900;49.306;8.500;2022-07-19T11:19:36;3.13;;;2.55;;
9722;SDS011;4900;49.306;8.500;2022-07-19T11:22:43;7.30;;;2.45;;
9722;SDS011;4900;49.306;8.500;2022-07-19T11:25:48;4.40;;;2.38;;
9722;SDS011;4900;49.306;8.500;2022-07-19T11:28:53;4.10;;;2.35;;
9722;SDS011;4900;49.306;8.500;2022-07-19T11:31:56;4.38;;;2.35;;
9722;SDS011;4900;49.306;8.500;2022-07-19T11:35:00;4.25;;;2.30;;
9722;SDS011;4900;49.306;8.500;2022-07-19T11:38:06;4.95;;;2.67;;
9722;SDS011;4900;49.306;8.500;2022-07-19T11:41:20;5.03;;;2.60;;
9722;SDS011;4900;49.306;8.500;2022-07-19T11:44:26;5.38;;;2.30;;
9722;SDS011;4900;49.306;8.500;2022-07-19T11:47:32;2.80;;;2.35;;
9722;SDS011;4900;49.306;8.500;2022-07-19T11:50:36;5.38;;;2.80;;
9722;SDS011;4900;49.306;8.500;2022-07-19T11:53:40;4.57;;;2.58;;
9722;SDS011;4900;49.306;8.500;2022-07-19T11:56:43;3.42;;;2.60;;
9722;SDS011;4900;49.306;8.500;2022-07-19T11:59:47;2.65;;;2.45;;
9722;SDS011;4900;49.306;8.500;2022-07-19T12:03:00;2.58;;;2.20;;
9722;SDS011;4900;49.306;8.500;2022-07-19T12:06:09;5.22;;;2.65;;
9722;SDS011;4900;49.306;8.500;2022-07-19T12:09:17;4.22;;;2.53;;
9722;SDS011;4900;49.306;8.500;2022-07-19T12:12:31;5.97;;;2.65;;
9722;SDS011;4900;49.306;8.500;2022-07-19T12:15:50;3.75;;;2.38;;
9722;SDS011;4900;49.306;8.500;2022-07-19T12:18:57;3.42;;;2.60;;
9722;SDS011;4900;49.306;8.500;2022-07-19T12:22:01;3.42;;;2.42;;
9722;SDS011;4900;49.306;8.500;2022-07-19T12:25:05;4.22;;;2.58;;
9722;SDS011;4900;49.306;8.500;2022-07-19T12:28:11;3.20;;;2.47;;
9722;SDS011;4900;49.306;8.500;2022-07-19T12:31:14;4.28;;;2.50;;
9722;SDS011;4900;49.306;8.500;2022-07-19T12:34:17;7.03;;;2.70;;
9722;SDS011;4900;49.306;8.500;2022-07-19T12:40:31;4.43;;;2.63;;
9722;SDS011;4900;49.306;8.500;2022-07-19T12:43:34;4.22;;;2.45;;
9722;SDS011;4900;49.306;8.500;2022-07-19T12:46:38;3.78;;;2.42;;
9722;SDS011;4900;49.306;8.500;2022-07-19T12:49:46;3.03;;;2.63;;
9722;SDS011;4900;49.306;8.500;2022-07-19T12:52:51;5.32;;;2.78;;
9722;SDS011;4900;49.306;8.500;2022-07-19T12:55:55;3.38;;;2.47;;
9722;SDS011;4900;49.306;8.500;2022-07-19T12:58:59;2.90;;;2.47;;
9722;SDS011;4900;49.306;8.500;2022-07-19T13:02:21;3.08;;;2.72;;
9722;SDS011;4900;49.306;8.500;2022-07-19T13:05:25;3.45;;;2.90;;
9722;SDS011;4900;49.306;8.500;2022-07-19T13:08:29;4.00;;;2.80;;
9722;SDS011;4900;49.306;8.500;2022-07-19T13:11:32;3.05;;;2.63;;
9722;SDS011;4900;49.306;8.500;2022-07-19T13:14:35;4.85;;;2.85;;
9722;SDS011;4900;49.306;8.500;2022-07-19T13:17:39;5.47;;;2.90;;
9722;SDS011;4900;49.306;8.500;2022-07-19T13:20:42;3.33;;;2.80;;
9722;SDS011;4900;49.306;8.500;2022-07-19T13:23:45;4.53;;;2.80;;
9722;SDS011;4900;49.306;8.500;2022-07-19T13:26:49;6.45;;;3.00;;
9722;SDS011;4900;49.306;8.500;2022-07-19T13:29:52;3.22;;;2.88;;
9722;SDS011;4900;49.306;8.500;2022-07-19T13:32:55;4.63;;;2.70;;
9722;SDS011;4900;49.306;8.500;2022-07-19T13:35:59;3.95;;;2.85;;
9722;SDS011;4900;49.306;8.500;2022-07-19T13:39:02;5.45;;;2.60;;
9722;SDS011;4900;49.306;8.500;2022-07-19T13:42:08;12.82;;;4.20;;
9722;SDS011;4900;49.306;8.500;2022-07-19T13:45:10;35.97;;;7.90;;
9722;SDS011;4900;49.306;8.500;2022-07-19T13:48:13;14.07;;;5.10;;
9722;SDS011;4900;49.306;8.500;2022-07-19T13:51:16;7.88;;;3.67;;
9722;SDS011;4900;49.306;8.500;2022-07-19T13:54:20;4.68;;;3.17;;
9722;SDS011;4900;49.306;8.500;2022-07-19T13:57:23;4.95;;;3.10;;
9722;SDS011;4900;49.306;8.500;2022-07-19T14:00:26;3.95;;;3.10;;
9722;SDS011;4900;49.306;8.500;2022-07-19T14:03:30;4.18;;;3.20;;
9722;SDS011;4900;49.306;8.500;2022-07-19T14:06:33;4.20;;;2.95;;
9722;SDS011;4900;49.306;8.500;2022-07-19T14:09:36;6.40;;;3.33;;
9722;SDS011;4900;49.306;8.500;2022-07-19T14:12:39;3.40;;;2.95;;
9722;SDS011;4900;49.306;8.500;2022-07-19T14:15:42;4.72;;;3.00;;
9722;SDS011;4900;49.306;8.500;2022-07-19T14:18:45;5.28;;;3.13;;
9722;SDS011;4900;49.306;8.500;2022-07-19T14:21:48;7.72;;;3.53;;
9722;SDS011;4900;49.306;8.500;2022-07-19T14:24:51;4.65;;;3.10;;
9722;SDS011;4900;49.306;8.500;2022-07-19T14:27:54;8.00;;;3.13;;
9722;SDS011;4900;49.306;8.500;2022-07-19T14:30:57;5.18;;;3.25;;
9722;SDS011;4900;49.306;8.500;2022-07-19T14:34:00;3.95;;;3.08;;
9722;SDS011;4900;49.306;8.500;2022-07-19T14:37:03;5.18;;;3.20;;
9722;SDS011;4900;49.306;8.500;2022-07-19T14:40:07;6.18;;;3.22;;
9722;SDS011;4900;49.306;8.500;2022-07-19T14:43:11;3.75;;;3.20;;
9722;SDS011;4900;49.306;8.500;2022-07-19T14:46:14;4.75;;;3.13;;
9722;SDS011;4900;49.306;8.500;2022-07-19T14:49:17;5.45;;;3.20;;
9722;SDS011;4900;49.306;8.500;2022-07-19T14:52:20;5.90;;;3.47;;
9722;SDS011;4900;49.306;8.500;2022-07-19T14:55:23;6.88;;;3.25;;
9722;SDS011;4900;49.306;8.500;2022-07-19T14:58:26;3.97;;;3.40;;
9722;SDS011;4900;49.306;8.500;2022-07-19T15:01:29;5.22;;;3.03;;
9722;SDS011;4900;49.306;8.500;2022-07-19T15:04:32;6.55;;;3.47;;
9722;SDS011;4900;49.306;8.500;2022-07-19T15:07:36;7.22;;;3.30;;
9722;SDS011;4900;49.306;8.500;2022-07-19T15:10:39;6.68;;;3.42;;
9722;SDS011;4900;49.306;8.500;2022-07-19T15:13:42;5.80;;;3.40;;
9722;SDS011;4900;49.306;8.500;2022-07-19T15:16:46;7.35;;;3.28;;
9722;SDS011;4900;49.306;8.500;2022-07-19T15:19:49;4.53;;;3.25;;
9722;SDS011;4900;49.306;8.500;2022-07-19T15:22:54;4.38;;;3.40;;
9722;SDS011;4900;49.306;8.500;2022-07-19T15:25:57;5.85;;;3.08;;
9722;SDS011;4900;49.306;8.500;2022-07-19T15:29:00;5.63;;;3.10;;
9722;SDS011;4900;49.306;8.500;2022-07-19T15:32:03;5.72;;;3.13;;
9722;SDS011;4900;49.306;8.500;2022-07-19T15:35:06;7.07;;;3.47;;
9722;SDS011;4900;49.306;8.500;2022-07-19T15:38:10;3.60;;;2.90;;
9722;SDS011;4900;49.306;8.500;2022-07-19T15:41:14;4.30;;;2.97;;
9722;SDS011;4900;49.306;8.500;2022-07-19T15:44:17;6.68;;;3.38;;
9722;SDS011;4900;49.306;8.500;2022-07-19T15:47:20;5.30;;;3.50;;
9722;SDS011;4900;49.306;8.500;2022-07-19T15:50:23;5.70;;;3.30;;
9722;SDS011;4900;49.306;8.500;2022-07-19T15:53:26;3.97;;;3.00;;
9722;SDS011;4900;49.306;8.500;2022-07-19T15:56:30;4.68;;;3.05;;
9722;SDS011;4900;49.306;8.500;2022-07-19T15:59:33;5.85;;;3.35;;
9722;SDS011;4900;49.306;8.500;2022-07-19T16:02:36;6.53;;;3.45;;
9722;SDS011;4900;49.306;8.500;2022-07-19T16:05:40;6.28;;;3.60;;
9722;SDS011;4900;49.306;8.500;2022-07-19T16:08:44;5.03;;;3.15;;
9722;SDS011;4900;49.306;8.500;2022-07-19T16:11:47;6.55;;;3.38;;
9722;SDS011;4900;49.306;8.500;2022-07-19T16:14:50;5.22;;;3.50;;
9722;SDS011;4900;49.306;8.500;2022-07-19T16:17:57;6.32;;;3.30;;
9722;SDS011;4900;49.306;8.500;2022-07-19T16:21:00;5.55;;;3.45;;
9722;SDS011;4900;49.306;8.500;2022-07-19T16:24:03;4.88;;;3.40;;
9722;SDS011;4900;49.306;8.500;2022-07-19T16:27:07;4.75;;;3.75;;
9722;SDS011;4900;49.306;8.500;2022-07-19T16:30:10;6.40;;;3.33;;
9722;SDS011;4900;49.306;8.500;2022-07-19T16:33:14;5.82;;;3.30;;
9722;SDS011;4900;49.306;8.500;2022-07-19T16:36:18;4.22;;;3.30;;
9722;SDS011;4900;49.306;8.500;2022-07-19T16:39:21;7.03;;;3.88;;
9722;SDS011;4900;49.306;8.500;2022-07-19T16:42:24;4.72;;;3.28;;
9722;SDS011;4900;49.306;8.500;2022-07-19T16:45:27;3.83;;;3.35;;
9722;SDS011;4900;49.306;8.500;2022-07-19T16:48:30;4.90;;;3.40;;
9722;SDS011;4900;49.306;8.500;2022-07-19T16:51:33;7.25;;;3.58;;
9722;SDS011;4900;49.306;8.500;2022-07-19T16:54:36;5.88;;;3.22;;
9722;SDS011;4900;49.306;8.500;2022-07-19T16:57:39;5.32;;;3.40;;
9722;SDS011;4900;49.306;8.500;2022-07-19T17:00:42;6.15;;;3.40;;
9722;SDS011;4900;49.306;8.500;2022-07-19T17:03:46;5.30;;;3.38;;
9722;SDS011;4900;49.306;8.500;2022-07-19T17:06:49;5.18;;;3.60;;
9722;SDS011;4900;49.306;8.500;2022-07-19T17:09:53;5.40;;;3.60;;
9722;SDS011;4900;49.306;8.500;2022-07-19T17:12:56;6.47;;;3.70;;
9722;SDS011;4900;49.306;8.500;2022-07-19T17:15:59;5.47;;;3.45;;
9722;SDS011;4900;49.306;8.500;2022-07-19T17:19:03;4.32;;;3.45;;
9722;SDS011;4900;49.306;8.500;2022-07-19T17:22:05;6.07;;;3.53;;
9722;SDS011;4900;49.306;8.500;2022-07-19T17:25:16;6.50;;;3.72;;
9722;SDS011;4900;49.306;8.500;2022-07-19T17:28:21;6.38;;;3.67;;
9722;SDS011;4900;49.306;8.500;2022-07-19T17:31:26;6.40;;;3.80;;
9722;SDS011;4900;49.306;8.500;2022-07-19T17:34:29;5.03;;;3.97;;
9722;SDS011;4900;49.306;8.500;2022-07-19T17:37:32;7.35;;;3.38;;
9722;SDS011;4900;49.306;8.500;2022-07-19T17:40:36;5.05;;;3.88;;
9722;SDS011;4900;49.306;8.500;2022-07-19T17:43:38;5.35;;;3.40;;
9722;SDS011;4900;49.306;8.500;2022-07-19T17:46:41;6.88;;;3.58;;
9722;SDS011;4900;49.306;8.500;2022-07-19T17:49:44;6.25;;;3.53;;
9722;SDS011;4900;49.306;8.500;2022-07-19T17:52:47;5.05;;;3.63;;
9722;SDS011;4900;49.306;8.500;2022-07-19T17:55:50;6.32;;;3.35;;
9722;SDS011;4900;49.306;8.500;2022-07-19T17:58:53;4.68;;;3.70;;
9722;SDS011;4900;49.306;8.500;2022-07-19T18:01:57;7.60;;;3.60;;
9722;SDS011;4900;49.306;8.500;2022-07-19T18:05:01;6.13;;;3.40;;
9722;SDS011;4900;49.306;8.500;2022-07-19T18:08:05;5.55;;;3.65;;
9722;SDS011;4900;49.306;8.500;2022-07-19T18:11:08;7.43;;;3.42;;
9722;SDS011;4900;49.306;8.500;2022-07-19T18:14:11;5.63;;;3.67;;
9722;SDS011;4900;49.306;8.500;2022-07-19T18:17:14;6.63;;;3.60;;
9722;SDS011;4900;49.306;8.500;2022-07-19T18:20:18;5.00;;;3.63;;
9722;SDS011;4900;49.306;8.500;2022-07-19T18:23:21;5.80;;;3.33;;
9722;SDS011;4900;49.306;8.500;2022-07-19T18:26:24;4.40;;;3.42;;
9722;SDS011;4900;49.306;8.500;2022-07-19T18:29:28;6.70;;;3.25;;
9722;SDS011;4900;49.306;8.500;2022-07-19T18:32:31;6.75;;;3.60;;
9722;SDS011;4900;49.306;8.500;2022-07-19T18:35:34;4.22;;;3.33;;
9722;SDS011;4900;49.306;8.500;2022-07-19T18:38:38;4.57;;;3.35;;
9722;SDS011;4900;49.306;8.500;2022-07-19T18:41:42;5.53;;;3.40;;
9722;SDS011;4900;49.306;8.500;2022-07-19T18:44:45;4.93;;;3.58;;
9722;SDS011;4900;49.306;8.500;2022-07-19T18:47:48;5.22;;;3.60;;
9722;SDS011;4900;49.306;8.500;2022-07-19T18:50:51;6.22;;;3.60;;
9722;SDS011;4900;49.306;8.500;2022-07-19T18:53:54;6.18;;;3.95;;
9722;SDS011;4900;49.306;8.500;2022-07-19T18:56:57;5.68;;;3.40;;
9722;SDS011;4900;49.306;8.500;2022-07-19T19:00:00;7.43;;;3.67;;
9722;SDS011;4900;49.306;8.500;2022-07-19T19:03:03;5.95;;;3.30;;
9722;SDS011;4900;49.306;8.500;2022-07-19T19:06:07;5.80;;;3.55;;
9722;SDS011;4900;49.306;8.500;2022-07-19T19:09:11;5.47;;;3.70;;
9722;SDS011;4900;49.306;8.500;2022-07-19T19:12:15;7.57;;;3.70;;
9722;SDS011;4900;49.306;8.500;2022-07-19T19:15:18;4.45;;;3.47;;